Stena Suede — ZCEF5 — position and weather

sailwx.info

Track history (hours):
 
Tides and Currents Weather Stations Pressure Air Temp Water Temp Dewpoint Dewpoint Depression Visibility Wind Speed Wind Dir Waves Ship Positions

Stena Suede

Last reported at 2016-Mar-06 21:27 UTC. Time now 2016-May-25 20:50 UTC.
Position N 08°02' W 015°29'.
Warning: this ship's position is months out of date.

Length 274 m; draft 9 m.

Type: Tanker. MMSI: 310622000.

Date/timePositionNaut miles runAvg speedWind from/ knotsBaromVisibWave heightAir tempDewpointWater temp
2016-Mar-06 21:27N 08°02' W 015°29'4514.8
2016-Mar-06 18:22N 08°39' W 015°56'3015.1
2016-Mar-06 16:24N 09°03' W 016°14'1315.2
2016-Mar-06 15:33N 09°13' W 016°22'1515.0
2016-Mar-06 14:33N 09°26' W 016°30'1515.0
2016-Mar-06 13:34N 09°38' W 016°40'29014.5
2016-Mar-05 17:32N 14°17' W 018°01'4314.4
2016-Mar-05 14:34N 14°60' W 018°03'1514.6
2016-Mar-05 13:31N 15°15' W 018°03'1714.7
2016-Mar-05 12:20N 15°32' W 018°03'1314.2
2016-Mar-05 11:26N 15°45' W 018°02'1514.4
2016-Mar-05 10:25N 15°60' W 018°02'1214.4
2016-Mar-05 09:33N 16°12' W 018°02'1414.4
2016-Mar-05 08:34N 16°27' W 018°02'2114.3
2016-Mar-05 07:07N 16°47' W 018°01'1114.5
2016-Mar-05 06:22N 16°58' W 018°01'42114.5
2016-Mar-04 01:21N 23°57' W 017°16'4114.7
2016-Mar-03 22:32N 24°34' W 016°57'1414.6
2016-Mar-03 21:34N 24°47' W 016°50'1514.5
2016-Mar-03 20:33N 24°60' W 016°43'17114.9
2016-Mar-03 09:07N 27°32' W 015°16'815.1
2016-Mar-03 08:34N 27°40' W 015°12'1514.8
2016-Mar-03 07:33N 27°53' W 015°06'1515.0
2016-Mar-03 06:33N 28°07' W 014°60'1515.1
2016-Mar-03 05:33N 28°22' W 014°55'1514.9
2016-Mar-03 04:33N 28°37' W 014°51'1514.8
2016-Mar-03 03:33N 28°51' W 014°48'1514.8
2016-Mar-03 02:33N 29°05' W 014°44'1514.9
2016-Mar-03 01:33N 29°20' W 014°40'1514.8
2016-Mar-03 00:34N 29°34' W 014°36'1514.7
2016-Mar-02 23:33N 29°49' W 014°32'1514.8
2016-Mar-02 22:33N 30°03' W 014°28'1514.9
2016-Mar-02 21:34N 30°17' W 014°24'2214.7
2016-Mar-02 20:05N 30°38' W 014°18'914.8
2016-Mar-02 19:28N 30°47' W 014°15'1914.9
2016-Mar-02 18:13N 31°05' W 014°10'1115.0
2016-Mar-02 17:30N 31°16' W 014°07'21515.0
2016-Mar-02 03:08N 34°45' W 013°09'5614.6
2016-Mar-01 23:18N 35°39' W 012°52'1114.8
2016-Mar-01 22:34N 35°50' W 012°49'1514.7
2016-Mar-01 21:33N 36°04' W 012°44'1514.9
2016-Mar-01 20:33N 36°19' W 012°41'1514.7
2016-Mar-01 19:31N 36°34' W 012°37'1414.7
2016-Mar-01 18:32N 36°48' W 012°33'1514.7
2016-Mar-01 17:32N 37°02' W 012°29'1414.8
2016-Mar-01 16:33N 37°16' W 012°24'1514.8
2016-Mar-01 15:33N 37°31' W 012°20'1915.1
2016-Mar-01 14:17N 37°49' W 012°15'4415.2
2016-Mar-01 11:24N 38°32' W 012°02'21115.2
2016-Feb-29 21:31N 41°58' W 010°58'55614.2
2016-Feb-28 06:24N 49°43' W 003°42'3215.7
2016-Feb-28 04:21N 49°57' W 002°57'1516.8
2016-Feb-28 03:26N 50°01' W 002°34'1916.3
2016-Feb-28 02:16N 50°06' W 002°05'9113.6
2016-Feb-27 19:33N 50°31' E 000°12'4715.6
2016-Feb-27 16:34N 50°53' E 001°17'1313.2
2016-Feb-27 15:33N 51°03' E 001°31'1212.3
2016-Feb-27 14:34N 51°12' E 001°44'1413.8
2016-Feb-27 13:34N 51°25' E 001°54'1615.6
2016-Feb-27 12:33N 51°36' E 002°10'140 9.8
2016-Feb-26 22:14N 53°42' E 000°31'7 9.7
2016-Feb-26 21:33N 53°38' E 000°22'1110.7
2016-Feb-26 20:33N 53°34' E 000°05'9 9.4
2016-Feb-26 19:34N 53°38' W 000°10'0 0.3
2016-Feb-26 18:33N 53°38' W 000°10'0 0.0
2016-Feb-26 17:31N 53°38' W 000°10'0 0.0
2016-Feb-26 16:31N 53°38' W 000°10'0 0.0
2016-Feb-26 15:31N 53°38' W 000°10'0 0.0
2016-Feb-26 14:31N 53°38' W 000°10'0 0.0
2016-Feb-26 13:31N 53°38' W 000°10'0 0.0
2016-Feb-26 12:28N 53°38' W 000°10'0 0.0
2016-Feb-26 11:31N 53°38' W 000°10'0 0.0
2016-Feb-26 10:34N 53°38' W 000°10'0 0.0
2016-Feb-26 09:31N 53°38' W 000°10'0 0.0
2016-Feb-26 08:31N 53°38' W 000°10'0 0.0
2016-Feb-26 07:31N 53°38' W 000°10'0 0.0
2016-Feb-26 06:31N 53°38' W 000°10'0 0.0
2016-Feb-26 05:30N 53°38' W 000°10'0 0.0
2016-Feb-26 04:31N 53°38' W 000°10'0 0.0
2016-Feb-26 03:34N 53°38' W 000°10'0 0.0
2016-Feb-26 02:34N 53°38' W 000°10'0 0.0
2016-Feb-26 01:34N 53°38' W 000°10'0 0.0
2016-Feb-26 00:31N 53°38' W 000°10'0 0.0
2016-Feb-25 23:34N 53°38' W 000°10'0 0.0
2016-Feb-25 22:31N 53°38' W 000°10'0 0.0
2016-Feb-25 21:33N 53°38' W 000°10'  
Track history (hours):
 
Tides and Currents Weather Stations Pressure Air Temp Water Temp Dewpoint Dewpoint Depression Visibility Wind Speed Wind Dir Waves Ship Positions

Stena Suede

Last reported at 2016-Mar-06 21:27 UTC. Time now 2016-May-25 20:50 UTC.
Position N 08°02' W 015°29'.
Warning: this ship's position is months out of date.

Length 274 m; draft 9 m.

Type: Tanker. MMSI: 310622000.

Date/timePositionNaut miles runAvg speedWind from/ knotsBaromVisibWave heightAir tempDewpointWater temp
2016-Mar-06 21:27N 08°02' W 015°29'4514.8
2016-Mar-06 18:22N 08°39' W 015°56'3015.1
2016-Mar-06 16:24N 09°03' W 016°14'1315.2
2016-Mar-06 15:33N 09°13' W 016°22'1515.0
2016-Mar-06 14:33N 09°26' W 016°30'1515.0
2016-Mar-06 13:34N 09°38' W 016°40'29014.5
2016-Mar-05 17:32N 14°17' W 018°01'4314.4
2016-Mar-05 14:34N 14°60' W 018°03'1514.6
2016-Mar-05 13:31N 15°15' W 018°03'1714.7
2016-Mar-05 12:20N 15°32' W 018°03'1314.2
2016-Mar-05 11:26N 15°45' W 018°02'1514.4
2016-Mar-05 10:25N 15°60' W 018°02'1214.4
2016-Mar-05 09:33N 16°12' W 018°02'1414.4
2016-Mar-05 08:34N 16°27' W 018°02'2114.3
2016-Mar-05 07:07N 16°47' W 018°01'1114.5
2016-Mar-05 06:22N 16°58' W 018°01'42114.5
2016-Mar-04 01:21N 23°57' W 017°16'4114.7
2016-Mar-03 22:32N 24°34' W 016°57'1414.6
2016-Mar-03 21:34N 24°47' W 016°50'1514.5
2016-Mar-03 20:33N 24°60' W 016°43'17114.9
2016-Mar-03 09:07N 27°32' W 015°16'815.1
2016-Mar-03 08:34N 27°40' W 015°12'1514.8
2016-Mar-03 07:33N 27°53' W 015°06'1515.0
2016-Mar-03 06:33N 28°07' W 014°60'1515.1
2016-Mar-03 05:33N 28°22' W 014°55'1514.9
2016-Mar-03 04:33N 28°37' W 014°51'1514.8
2016-Mar-03 03:33N 28°51' W 014°48'1514.8
2016-Mar-03 02:33N 29°05' W 014°44'1514.9
2016-Mar-03 01:33N 29°20' W 014°40'1514.8
2016-Mar-03 00:34N 29°34' W 014°36'1514.7
2016-Mar-02 23:33N 29°49' W 014°32'1514.8
2016-Mar-02 22:33N 30°03' W 014°28'1514.9
2016-Mar-02 21:34N 30°17' W 014°24'2214.7
2016-Mar-02 20:05N 30°38' W 014°18'914.8
2016-Mar-02 19:28N 30°47' W 014°15'1914.9
2016-Mar-02 18:13N 31°05' W 014°10'1115.0
2016-Mar-02 17:30N 31°16' W 014°07'21515.0
2016-Mar-02 03:08N 34°45' W 013°09'5614.6
2016-Mar-01 23:18N 35°39' W 012°52'1114.8
2016-Mar-01 22:34N 35°50' W 012°49'1514.7
2016-Mar-01 21:33N 36°04' W 012°44'1514.9
2016-Mar-01 20:33N 36°19' W 012°41'1514.7
2016-Mar-01 19:31N 36°34' W 012°37'1414.7
2016-Mar-01 18:32N 36°48' W 012°33'1514.7
2016-Mar-01 17:32N 37°02' W 012°29'1414.8
2016-Mar-01 16:33N 37°16' W 012°24'1514.8
2016-Mar-01 15:33N 37°31' W 012°20'1915.1
2016-Mar-01 14:17N 37°49' W 012°15'4415.2
2016-Mar-01 11:24N 38°32' W 012°02'21115.2
2016-Feb-29 21:31N 41°58' W 010°58'55614.2
2016-Feb-28 06:24N 49°43' W 003°42'3215.7
2016-Feb-28 04:21N 49°57' W 002°57'1516.8
2016-Feb-28 03:26N 50°01' W 002°34'1916.3
2016-Feb-28 02:16N 50°06' W 002°05'9113.6
2016-Feb-27 19:33N 50°31' E 000°12'4715.6
2016-Feb-27 16:34N 50°53' E 001°17'1313.2
2016-Feb-27 15:33N 51°03' E 001°31'1212.3
2016-Feb-27 14:34N 51°12' E 001°44'1413.8
2016-Feb-27 13:34N 51°25' E 001°54'1615.6
2016-Feb-27 12:33N 51°36' E 002°10'140 9.8
2016-Feb-26 22:14N 53°42' E 000°31'7 9.7
2016-Feb-26 21:33N 53°38' E 000°22'1110.7
2016-Feb-26 20:33N 53°34' E 000°05'9 9.4
2016-Feb-26 19:34N 53°38' W 000°10'0 0.3
2016-Feb-26 18:33N 53°38' W 000°10'0 0.0
2016-Feb-26 17:31N 53°38' W 000°10'0 0.0
2016-Feb-26 16:31N 53°38' W 000°10'0 0.0
2016-Feb-26 15:31N 53°38' W 000°10'0 0.0
2016-Feb-26 14:31N 53°38' W 000°10'0 0.0
2016-Feb-26 13:31N 53°38' W 000°10'0 0.0
2016-Feb-26 12:28N 53°38' W 000°10'0 0.0
2016-Feb-26 11:31N 53°38' W 000°10'0 0.0
2016-Feb-26 10:34N 53°38' W 000°10'0 0.0
2016-Feb-26 09:31N 53°38' W 000°10'0 0.0
2016-Feb-26 08:31N 53°38' W 000°10'0 0.0
2016-Feb-26 07:31N 53°38' W 000°10'0 0.0
2016-Feb-26 06:31N 53°38' W 000°10'0 0.0
2016-Feb-26 05:30N 53°38' W 000°10'0 0.0
2016-Feb-26 04:31N 53°38' W 000°10'0 0.0
2016-Feb-26 03:34N 53°38' W 000°10'0 0.0
2016-Feb-26 02:34N 53°38' W 000°10'0 0.0
2016-Feb-26 01:34N 53°38' W 000°10'0 0.0
2016-Feb-26 00:31N 53°38' W 000°10'0 0.0
2016-Feb-25 23:34N 53°38' W 000°10'0 0.0
2016-Feb-25 22:31N 53°38' W 000°10'0 0.0
2016-Feb-25 21:33N 53°38' W 000°10'  

Dump ship's entire track history